CPA831 KJFK-VHHH
Flight info
| Callsign | CPA831 |
|---|---|
| Flight time | N/A |
| Altitude | 34000 |
| Route | GREKI DCT JUDDS DCT CAM DCT YVO DCT 50N080W 55N084W 59N090W 63N100W 65N110W 66N120W 67N130W DCT GOATS DCT BTT NCA30 OME R338 NATES/N0494F350 R220 NYMPH/N0493F360 R220 NUBDA/N0495F370 R220 NANAC/N0491F380 R220 IXE Y88 NAKTU Y12 KOHWA Y54 TURFY Y24 KOSHI Y50 IGMON A1 OSTAR/N0491F400 A1 APU DCT MKG A1 ELATO V522 ABBEY |
| Aircraft | A35K/H-SDE2E3GHIJ3J4J5LM1ORWXY/LB1D1 |
Departure
| Time | N/A |
|---|---|
| Airport | John F. Kennedy International Airport (KJFK) |
Arrival
| Time | 2026-05-05 13:58 |
|---|---|
| Airport | Hong Kong International Airport (VHHH) |
| Time | Latitude | Longitude | Altitude | Speed | Heading |
|---|---|---|---|---|---|
| 2026-05-05 07:24 | 47.41101 | 155.00872 | 35609 ft | 442 kts | 231° |
| 2026-05-05 07:25 | 47.39113 | 154.97409 | 35593 ft | 442 kts | 231° |
| 2026-05-05 07:25 | 47.35166 | 154.90550 | 35610 ft | 440 kts | 230° |
| 2026-05-05 07:26 | 47.31206 | 154.83685 | 35627 ft | 439 kts | 230° |
| 2026-05-05 07:26 | 47.27243 | 154.76830 | 35636 ft | 440 kts | 230° |
| 2026-05-05 07:27 | 47.23273 | 154.69982 | 35634 ft | 440 kts | 230° |
| 2026-05-05 07:27 | 47.19299 | 154.63143 | 35633 ft | 440 kts | 230° |
| 2026-05-05 07:28 | 47.15320 | 154.56315 | 35642 ft | 440 kts | 230° |
| 2026-05-05 07:28 | 47.11336 | 154.49495 | 35662 ft | 440 kts | 230° |
| 2026-05-05 07:29 | 47.07340 | 154.42671 | 35652 ft | 441 kts | 230° |
| 2026-05-05 07:29 | 47.03333 | 154.35845 | 35655 ft | 442 kts | 230° |
| 2026-05-05 07:30 | 46.99319 | 154.29025 | 35651 ft | 441 kts | 230° |
| 2026-05-05 07:30 | 46.93356 | 154.18925 | 35677 ft | 438 kts | 230° |
| 2026-05-05 07:31 | 46.89359 | 154.12175 | 35670 ft | 440 kts | 230° |
| 2026-05-05 07:31 | 46.85348 | 154.05418 | 35677 ft | 440 kts | 230° |
| 2026-05-05 07:32 | 46.81983 | 153.99764 | 35690 ft | 440 kts | 230° |
| 2026-05-05 07:32 | 46.77965 | 153.93026 | 35681 ft | 440 kts | 230° |
| 2026-05-05 07:33 | 46.73934 | 153.86285 | 35696 ft | 441 kts | 230° |
| 2026-05-05 07:33 | 46.69891 | 153.79539 | 35706 ft | 442 kts | 230° |
| 2026-05-05 07:34 | 46.65839 | 153.72795 | 35709 ft | 442 kts | 230° |
| 2026-05-05 07:34 | 46.61812 | 153.66110 | 35713 ft | 442 kts | 230° |
| 2026-05-05 07:35 | 46.57764 | 153.59407 | 35709 ft | 440 kts | 230° |
| 2026-05-05 07:35 | 46.53717 | 153.52721 | 35733 ft | 441 kts | 230° |
| 2026-05-05 07:36 | 46.49662 | 153.46037 | 35721 ft | 441 kts | 230° |
| 2026-05-05 07:36 | 46.45601 | 153.39360 | 35722 ft | 441 kts | 230° |
| 2026-05-05 07:37 | 46.41537 | 153.32697 | 35729 ft | 441 kts | 230° |
| 2026-05-05 07:37 | 46.37463 | 153.26031 | 35742 ft | 442 kts | 230° |
| 2026-05-05 07:38 | 46.33381 | 153.19369 | 35746 ft | 442 kts | 230° |
| 2026-05-05 07:38 | 46.29294 | 153.12716 | 35752 ft | 442 kts | 230° |
| 2026-05-05 07:39 | 46.25203 | 153.06072 | 35732 ft | 443 kts | 230° |
| 2026-05-05 07:39 | 46.21108 | 152.99439 | 35760 ft | 441 kts | 230° |
| 2026-05-05 07:40 | 46.17025 | 152.92894 | 35760 ft | 441 kts | 230° |
| 2026-05-05 07:40 | 46.12904 | 152.86342 | 35769 ft | 441 kts | 230° |
| 2026-05-05 07:41 | 46.08778 | 152.79789 | 35785 ft | 441 kts | 230° |
| 2026-05-05 07:41 | 46.04648 | 152.73240 | 35778 ft | 442 kts | 230° |
| 2026-05-05 07:42 | 46.00505 | 152.66682 | 35779 ft | 443 kts | 230° |
| 2026-05-05 07:42 | 45.96357 | 152.60132 | 35780 ft | 443 kts | 230° |
| 2026-05-05 07:43 | 45.92204 | 152.53590 | 35788 ft | 443 kts | 230° |
| 2026-05-05 07:43 | 45.88044 | 152.47054 | 35794 ft | 444 kts | 230° |
| 2026-05-05 07:44 | 45.83864 | 152.40500 | 35776 ft | 445 kts | 230° |
| 2026-05-05 07:44 | 45.79677 | 152.33952 | 35802 ft | 446 kts | 230° |
| 2026-05-05 07:45 | 45.75487 | 152.27415 | 35802 ft | 445 kts | 230° |
| 2026-05-05 07:45 | 45.71284 | 152.20875 | 35808 ft | 447 kts | 230° |
| 2026-05-05 07:46 | 45.67099 | 152.14375 | 35809 ft | 447 kts | 230° |
| 2026-05-05 07:46 | 45.62878 | 152.07837 | 35810 ft | 448 kts | 230° |
| 2026-05-05 07:47 | 45.58650 | 152.01304 | 35816 ft | 448 kts | 230° |
| 2026-05-05 07:47 | 45.54419 | 151.94781 | 35820 ft | 448 kts | 230° |
| 2026-05-05 07:48 | 45.50185 | 151.88270 | 35804 ft | 448 kts | 229° |
| 2026-05-05 07:48 | 45.45959 | 151.81787 | 35823 ft | 445 kts | 229° |
| 2026-05-05 07:49 | 45.41746 | 151.75338 | 35828 ft | 444 kts | 229° |
| 2026-05-05 07:49 | 45.37527 | 151.68894 | 35829 ft | 446 kts | 229° |
| 2026-05-05 07:50 | 45.33294 | 151.62444 | 35837 ft | 446 kts | 229° |
| 2026-05-05 07:50 | 45.29055 | 151.56002 | 35837 ft | 446 kts | 229° |
| 2026-05-05 07:51 | 45.24809 | 151.49563 | 35845 ft | 446 kts | 229° |
| 2026-05-05 07:51 | 45.20555 | 151.43128 | 35851 ft | 447 kts | 229° |
| 2026-05-05 07:52 | 45.16292 | 151.36693 | 35856 ft | 448 kts | 229° |
| 2026-05-05 07:52 | 45.12020 | 151.30261 | 35847 ft | 448 kts | 229° |
| 2026-05-05 07:53 | 45.07784 | 151.23899 | 35861 ft | 446 kts | 229° |
| 2026-05-05 07:53 | 45.03524 | 151.17516 | 35871 ft | 446 kts | 229° |
| 2026-05-05 07:54 | 44.99252 | 151.11127 | 35878 ft | 447 kts | 229° |
| 2026-05-05 07:54 | 44.94978 | 151.04751 | 35877 ft | 447 kts | 229° |
| 2026-05-05 07:55 | 44.90702 | 150.98386 | 35882 ft | 447 kts | 229° |
| 2026-05-05 07:55 | 44.86420 | 150.92028 | 35895 ft | 447 kts | 229° |
| 2026-05-05 07:56 | 44.82133 | 150.85677 | 35895 ft | 447 kts | 229° |
| 2026-05-05 07:56 | 44.77843 | 150.79336 | 35897 ft | 447 kts | 229° |
| 2026-05-05 07:57 | 44.73547 | 150.73002 | 35904 ft | 447 kts | 229° |
| 2026-05-05 07:57 | 44.69259 | 150.66693 | 35909 ft | 446 kts | 229° |
| 2026-05-05 07:58 | 44.64968 | 150.60394 | 35916 ft | 446 kts | 229° |
| 2026-05-05 07:58 | 44.60672 | 150.54102 | 35922 ft | 446 kts | 229° |
| 2026-05-05 07:59 | 44.56372 | 150.47819 | 35920 ft | 447 kts | 229° |
| 2026-05-05 07:59 | 44.52051 | 150.41518 | 35927 ft | 449 kts | 229° |
| 2026-05-05 08:00 | 44.47713 | 150.35208 | 35929 ft | 450 kts | 229° |
| 2026-05-05 08:00 | 44.43368 | 150.28904 | 35938 ft | 450 kts | 229° |
| 2026-05-05 08:01 | 44.39018 | 150.22605 | 35919 ft | 450 kts | 229° |
| 2026-05-05 08:01 | 44.34662 | 150.16312 | 35940 ft | 450 kts | 229° |
| 2026-05-05 08:02 | 44.30309 | 150.10039 | 35950 ft | 449 kts | 229° |
| 2026-05-05 08:02 | 44.25956 | 150.03779 | 35952 ft | 449 kts | 229° |
| 2026-05-05 08:03 | 44.21599 | 149.97528 | 35955 ft | 450 kts | 229° |
| 2026-05-05 08:03 | 44.17224 | 149.91262 | 35958 ft | 452 kts | 229° |
| 2026-05-05 08:04 | 44.12835 | 149.84994 | 35963 ft | 452 kts | 229° |
| 2026-05-05 08:04 | 44.08442 | 149.78734 | 35963 ft | 452 kts | 229° |
| 2026-05-05 08:05 | 44.04047 | 149.72486 | 35967 ft | 453 kts | 229° |
| 2026-05-05 08:05 | 43.99640 | 149.66233 | 35971 ft | 452 kts | 229° |
| 2026-05-05 08:06 | 43.95243 | 149.60011 | 35974 ft | 451 kts | 229° |
| 2026-05-05 08:06 | 43.90846 | 149.53801 | 35973 ft | 451 kts | 229° |
| 2026-05-05 08:07 | 43.86450 | 149.47607 | 35975 ft | 451 kts | 229° |
| 2026-05-05 08:07 | 43.82047 | 149.41415 | 35984 ft | 451 kts | 229° |
| 2026-05-05 08:08 | 43.77640 | 149.35233 | 35983 ft | 451 kts | 229° |
| 2026-05-05 08:08 | 43.73231 | 149.29063 | 35982 ft | 451 kts | 229° |
| 2026-05-05 08:09 | 43.68836 | 149.22923 | 35985 ft | 453 kts | 229° |
| 2026-05-05 08:09 | 43.64404 | 149.16746 | 35977 ft | 453 kts | 229° |
| 2026-05-05 08:10 | 43.59983 | 149.10601 | 35988 ft | 450 kts | 229° |
| 2026-05-05 08:10 | 43.55569 | 149.04478 | 35995 ft | 450 kts | 229° |
| 2026-05-05 08:11 | 43.51144 | 148.98351 | 35990 ft | 451 kts | 229° |
| 2026-05-05 08:11 | 43.46712 | 148.92229 | 35993 ft | 451 kts | 229° |
| 2026-05-05 08:12 | 43.42274 | 148.86113 | 36002 ft | 452 kts | 229° |
| 2026-05-05 08:12 | 43.37830 | 148.80003 | 36006 ft | 452 kts | 229° |
| 2026-05-05 08:13 | 43.33377 | 148.73892 | 36004 ft | 453 kts | 229° |
| 2026-05-05 08:13 | 43.28918 | 148.67786 | 35987 ft | 453 kts | 229° |
| 2026-05-05 08:14 | 43.24461 | 148.61699 | 36006 ft | 451 kts | 229° |
| 2026-05-05 08:14 | 43.20005 | 148.55625 | 36010 ft | 452 kts | 229° |
| 2026-05-05 08:15 | 43.15543 | 148.49554 | 36018 ft | 452 kts | 229° |
| 2026-05-05 08:15 | 43.11079 | 148.43495 | 36018 ft | 452 kts | 229° |
| 2026-05-05 08:16 | 43.06612 | 148.37446 | 36011 ft | 452 kts | 229° |
| 2026-05-05 08:16 | 43.02135 | 148.31396 | 36012 ft | 452 kts | 229° |
| 2026-05-05 08:17 | 42.97654 | 148.25353 | 36017 ft | 453 kts | 229° |
| 2026-05-05 08:17 | 42.93171 | 148.19322 | 36002 ft | 452 kts | 229° |
| 2026-05-05 08:18 | 42.89444 | 148.14318 | 36022 ft | 452 kts | 229° |
| 2026-05-05 08:18 | 42.84959 | 148.08307 | 36023 ft | 452 kts | 229° |
| 2026-05-05 08:19 | 42.79739 | 148.01328 | 36025 ft | 452 kts | 229° |
| 2026-05-05 08:19 | 42.75976 | 147.96306 | 36013 ft | 452 kts | 230° |
| 2026-05-05 08:20 | 42.71476 | 147.90315 | 36029 ft | 453 kts | 230° |
| 2026-05-05 08:20 | 42.66972 | 147.84330 | 36029 ft | 453 kts | 230° |
| 2026-05-05 08:21 | 42.62497 | 147.78397 | 36031 ft | 453 kts | 230° |
| 2026-05-05 08:21 | 42.57985 | 147.72428 | 36007 ft | 452 kts | 230° |
| 2026-05-05 08:22 | 42.53484 | 147.66487 | 36035 ft | 451 kts | 230° |
| 2026-05-05 08:22 | 42.48990 | 147.60565 | 36037 ft | 451 kts | 230° |
| 2026-05-05 08:23 | 42.44492 | 147.54650 | 36025 ft | 451 kts | 229° |
| 2026-05-05 08:23 | 42.40005 | 147.48766 | 36364 ft | 447 kts | 229° |
| 2026-05-05 08:24 | 42.37779 | 147.45855 | 36734 ft | 443 kts | 229° |
| 2026-05-05 08:24 | 42.35570 | 147.42963 | 36990 ft | 442 kts | 229° |
| 2026-05-05 08:24 | 42.31118 | 147.37124 | 37044 ft | 448 kts | 229° |
| 2026-05-05 08:25 | 42.26641 | 147.31271 | 37050 ft | 448 kts | 229° |
| 2026-05-05 08:25 | 42.22160 | 147.25431 | 37051 ft | 448 kts | 229° |
| 2026-05-05 08:26 | 42.17678 | 147.19602 | 37054 ft | 448 kts | 229° |
| 2026-05-05 08:26 | 42.13194 | 147.13781 | 37056 ft | 448 kts | 229° |
| 2026-05-05 08:27 | 42.08703 | 147.07963 | 37061 ft | 448 kts | 229° |
| 2026-05-05 08:27 | 42.04207 | 147.02150 | 37061 ft | 448 kts | 229° |
| 2026-05-05 08:28 | 41.99710 | 146.96349 | 37064 ft | 448 kts | 229° |
| 2026-05-05 08:28 | 41.95208 | 146.90553 | 37060 ft | 448 kts | 229° |
| 2026-05-05 08:29 | 41.90700 | 146.84763 | 37062 ft | 448 kts | 229° |
| 2026-05-05 08:30 | 41.83944 | 146.76090 | 37069 ft | 447 kts | 229° |
| 2026-05-05 08:30 | 41.79449 | 146.70326 | 37076 ft | 447 kts | 229° |
| 2026-05-05 08:31 | 41.74956 | 146.64580 | 37063 ft | 447 kts | 229° |
| 2026-05-05 08:31 | 41.70460 | 146.58844 | 37070 ft | 447 kts | 229° |
| 2026-05-05 08:32 | 41.65960 | 146.53114 | 37078 ft | 447 kts | 229° |
| 2026-05-05 08:32 | 41.61456 | 146.47391 | 37080 ft | 447 kts | 229° |
| 2026-05-05 08:33 | 41.56950 | 146.41676 | 37079 ft | 447 kts | 229° |
| 2026-05-05 08:33 | 41.52442 | 146.35970 | 37084 ft | 446 kts | 229° |
| 2026-05-05 08:34 | 41.47965 | 146.30317 | 37088 ft | 446 kts | 229° |
| 2026-05-05 08:34 | 41.43466 | 146.24647 | 37100 ft | 445 kts | 229° |
| 2026-05-05 08:35 | 41.38968 | 146.18988 | 37100 ft | 445 kts | 229° |
| 2026-05-05 08:35 | 41.34465 | 146.13334 | 37096 ft | 445 kts | 229° |
| 2026-05-05 08:36 | 41.29958 | 146.07687 | 37109 ft | 445 kts | 229° |
| 2026-05-05 08:36 | 41.25452 | 146.02053 | 37108 ft | 445 kts | 229° |
| 2026-05-05 08:37 | 41.20938 | 145.96420 | 37107 ft | 445 kts | 229° |
| 2026-05-05 08:37 | 41.16424 | 145.90797 | 37109 ft | 445 kts | 229° |
| 2026-05-05 08:38 | 41.11921 | 145.85201 | 37112 ft | 443 kts | 229° |
| 2026-05-05 08:38 | 41.07422 | 145.79621 | 37115 ft | 443 kts | 229° |
| 2026-05-05 08:39 | 41.02918 | 145.74043 | 37111 ft | 443 kts | 229° |
| 2026-05-05 08:39 | 40.98410 | 145.68472 | 37122 ft | 444 kts | 229° |
| 2026-05-05 08:40 | 40.93890 | 145.62897 | 37121 ft | 444 kts | 229° |
| 2026-05-05 08:40 | 40.89395 | 145.57364 | 37123 ft | 444 kts | 229° |
| 2026-05-05 08:41 | 40.84868 | 145.51805 | 37129 ft | 444 kts | 229° |
| 2026-05-05 08:41 | 40.80352 | 145.46269 | 37130 ft | 442 kts | 229° |
| 2026-05-05 08:42 | 40.75841 | 145.40749 | 37129 ft | 442 kts | 229° |
| 2026-05-05 08:42 | 40.71330 | 145.35238 | 37129 ft | 442 kts | 229° |
| 2026-05-05 08:43 | 40.66815 | 145.29735 | 37130 ft | 442 kts | 229° |
| 2026-05-05 08:43 | 40.62297 | 145.24239 | 37138 ft | 442 kts | 229° |
| 2026-05-05 08:44 | 40.57775 | 145.18748 | 37123 ft | 442 kts | 229° |
| 2026-05-05 08:44 | 40.53254 | 145.13269 | 37137 ft | 442 kts | 229° |
| 2026-05-05 08:45 | 40.48764 | 145.07838 | 37137 ft | 441 kts | 229° |
| 2026-05-05 08:45 | 40.44247 | 145.02385 | 37143 ft | 441 kts | 228° |
| 2026-05-05 08:46 | 40.39730 | 144.96947 | 37137 ft | 441 kts | 228° |
| 2026-05-05 08:46 | 40.35210 | 144.91509 | 37151 ft | 441 kts | 228° |
| 2026-05-05 08:47 | 40.30690 | 144.86078 | 37154 ft | 441 kts | 228° |
| 2026-05-05 08:47 | 40.26165 | 144.80654 | 37141 ft | 441 kts | 228° |
| 2026-05-05 08:48 | 40.21634 | 144.75233 | 37162 ft | 441 kts | 228° |
| 2026-05-05 08:48 | 40.17099 | 144.69820 | 37134 ft | 441 kts | 228° |
| 2026-05-05 08:49 | 40.12600 | 144.64460 | 37151 ft | 439 kts | 228° |
| 2026-05-05 08:49 | 40.08093 | 144.59103 | 37157 ft | 437 kts | 228° |
| 2026-05-05 08:50 | 40.03608 | 144.53777 | 37160 ft | 436 kts | 228° |
| 2026-05-05 08:50 | 39.99124 | 144.48462 | 37159 ft | 436 kts | 228° |
| 2026-05-05 08:51 | 39.94636 | 144.43153 | 37162 ft | 435 kts | 228° |
| 2026-05-05 08:51 | 39.90145 | 144.37851 | 37162 ft | 435 kts | 228° |
| 2026-05-05 08:52 | 39.85646 | 144.32549 | 37161 ft | 435 kts | 228° |
| 2026-05-05 08:52 | 39.81156 | 144.27268 | 37155 ft | 434 kts | 228° |
| 2026-05-05 08:53 | 39.76718 | 144.22060 | 37168 ft | 432 kts | 228° |
| 2026-05-05 08:53 | 39.72255 | 144.16829 | 37168 ft | 432 kts | 228° |
| 2026-05-05 08:54 | 39.67793 | 144.11608 | 37170 ft | 432 kts | 228° |
| 2026-05-05 08:54 | 39.63335 | 144.06401 | 37164 ft | 431 kts | 228° |
| 2026-05-05 08:55 | 39.58875 | 144.01203 | 37167 ft | 431 kts | 228° |
| 2026-05-05 08:55 | 39.54415 | 143.96013 | 37185 ft | 431 kts | 228° |
| 2026-05-05 08:56 | 39.49954 | 143.90832 | 37172 ft | 430 kts | 228° |
| 2026-05-05 08:56 | 39.45511 | 143.85684 | 37177 ft | 428 kts | 228° |
| 2026-05-05 08:57 | 39.41080 | 143.80557 | 37180 ft | 427 kts | 228° |
| 2026-05-05 08:57 | 39.36648 | 143.75435 | 37176 ft | 427 kts | 228° |
| 2026-05-05 08:58 | 39.32220 | 143.70329 | 37177 ft | 426 kts | 228° |
| 2026-05-05 08:58 | 39.27817 | 143.65260 | 37181 ft | 426 kts | 228° |
| 2026-05-05 08:59 | 39.23386 | 143.60169 | 37181 ft | 426 kts | 228° |
| 2026-05-05 08:59 | 39.18954 | 143.55085 | 37182 ft | 427 kts | 228° |
| 2026-05-05 09:00 | 39.14532 | 143.50024 | 37185 ft | 423 kts | 228° |
| 2026-05-05 09:00 | 39.10147 | 143.45016 | 37187 ft | 421 kts | 228° |
| 2026-05-05 09:01 | 39.05771 | 143.40019 | 37190 ft | 421 kts | 228° |
| 2026-05-05 09:01 | 39.01390 | 143.35026 | 37189 ft | 421 kts | 228° |
| 2026-05-05 09:02 | 38.97004 | 143.30039 | 37186 ft | 421 kts | 228° |
| 2026-05-05 09:02 | 38.92616 | 143.25058 | 37228 ft | 420 kts | 228° |
| 2026-05-05 09:02 | 38.90427 | 143.22578 | 37509 ft | 418 kts | 228° |
| 2026-05-05 09:03 | 38.88304 | 143.20062 | 37856 ft | 413 kts | 230° |
| 2026-05-05 09:03 | 38.86291 | 143.17458 | 38138 ft | 410 kts | 232° |
| 2026-05-05 09:03 | 38.84319 | 143.14802 | 38205 ft | 412 kts | 232° |
| 2026-05-05 09:04 | 38.80348 | 143.09433 | 38194 ft | 415 kts | 232° |
| 2026-05-05 09:04 | 38.76330 | 143.04123 | 38199 ft | 415 kts | 231° |
| 2026-05-05 09:05 | 38.72285 | 142.98855 | 38199 ft | 415 kts | 231° |
| 2026-05-05 09:05 | 38.68233 | 142.93601 | 38200 ft | 414 kts | 231° |
| 2026-05-05 09:06 | 38.64182 | 142.88353 | 38192 ft | 414 kts | 231° |
| 2026-05-05 09:06 | 38.60135 | 142.83116 | 38198 ft | 414 kts | 231° |
| 2026-05-05 09:07 | 38.56088 | 142.77887 | 38198 ft | 414 kts | 231° |
| 2026-05-05 09:07 | 38.52035 | 142.72658 | 38192 ft | 414 kts | 231° |
| 2026-05-05 09:08 | 38.48667 | 142.68320 | 38200 ft | 413 kts | 231° |
| 2026-05-05 09:08 | 38.44636 | 142.63139 | 38203 ft | 411 kts | 231° |
| 2026-05-05 09:09 | 38.39955 | 142.57131 | 38203 ft | 411 kts | 231° |
| 2026-05-05 09:09 | 38.36578 | 142.52802 | 38203 ft | 411 kts | 231° |
| 2026-05-05 09:10 | 38.32545 | 142.47641 | 38208 ft | 411 kts | 231° |
| 2026-05-05 09:10 | 38.28550 | 142.42497 | 38208 ft | 411 kts | 231° |
| 2026-05-05 09:11 | 38.24566 | 142.37279 | 38206 ft | 411 kts | 231° |
| 2026-05-05 09:11 | 38.20580 | 142.32066 | 38208 ft | 411 kts | 231° |
| 2026-05-05 09:12 | 38.16588 | 142.26871 | 38206 ft | 411 kts | 231° |
| 2026-05-05 09:12 | 38.12590 | 142.21687 | 38199 ft | 410 kts | 231° |
| 2026-05-05 09:13 | 38.08608 | 142.16536 | 38209 ft | 408 kts | 231° |
| 2026-05-05 09:13 | 38.04636 | 142.11402 | 38210 ft | 407 kts | 231° |
| 2026-05-05 09:14 | 38.00665 | 142.06277 | 38209 ft | 407 kts | 231° |
| 2026-05-05 09:14 | 37.96693 | 142.01162 | 38221 ft | 407 kts | 231° |
| 2026-05-05 09:15 | 37.92719 | 141.96048 | 38205 ft | 407 kts | 231° |
| 2026-05-05 09:15 | 37.88744 | 141.90942 | 38206 ft | 407 kts | 231° |
| 2026-05-05 09:16 | 37.84767 | 141.85842 | 38226 ft | 407 kts | 231° |
| 2026-05-05 09:16 | 37.80790 | 141.80751 | 38221 ft | 407 kts | 231° |
| 2026-05-05 09:17 | 37.76807 | 141.75662 | 38198 ft | 407 kts | 231° |
| 2026-05-05 09:17 | 37.72855 | 141.70622 | 38217 ft | 405 kts | 231° |
| 2026-05-05 09:18 | 37.68893 | 141.65574 | 38217 ft | 404 kts | 231° |
| 2026-05-05 09:18 | 37.64932 | 141.60536 | 38219 ft | 404 kts | 231° |
| 2026-05-05 09:19 | 37.60968 | 141.55502 | 38221 ft | 404 kts | 231° |
| 2026-05-05 09:19 | 37.57003 | 141.50475 | 38219 ft | 404 kts | 231° |
| 2026-05-05 09:20 | 37.53037 | 141.45456 | 38217 ft | 404 kts | 231° |
| 2026-05-05 09:20 | 37.49064 | 141.40435 | 38219 ft | 404 kts | 231° |
| 2026-05-05 09:21 | 37.45090 | 141.35421 | 38224 ft | 405 kts | 231° |
| 2026-05-05 09:21 | 37.41115 | 141.30415 | 38209 ft | 404 kts | 231° |
| 2026-05-05 09:22 | 37.37148 | 141.25429 | 38218 ft | 402 kts | 231° |
| 2026-05-05 09:22 | 37.33197 | 141.20468 | 38240 ft | 401 kts | 231° |
| 2026-05-05 09:23 | 37.29245 | 141.15511 | 38233 ft | 401 kts | 231° |
| 2026-05-05 09:23 | 37.25294 | 141.10565 | 38206 ft | 401 kts | 231° |
| 2026-05-05 09:24 | 37.21341 | 141.05627 | 38234 ft | 400 kts | 231° |
| 2026-05-05 09:24 | 37.17397 | 141.00706 | 38226 ft | 400 kts | 231° |
| 2026-05-05 09:25 | 37.13649 | 140.95609 | 38221 ft | 396 kts | 235° |
| 2026-05-05 09:25 | 37.10168 | 140.90265 | 38235 ft | 395 kts | 236° |
| 2026-05-05 09:26 | 37.06729 | 140.84890 | 38229 ft | 396 kts | 236° |
| 2026-05-05 09:26 | 37.03305 | 140.79544 | 38229 ft | 396 kts | 236° |
| 2026-05-05 09:27 | 36.99856 | 140.74182 | 38229 ft | 395 kts | 236° |
| 2026-05-05 09:27 | 36.96411 | 140.68844 | 38229 ft | 393 kts | 236° |
| 2026-05-05 09:28 | 36.92978 | 140.63538 | 38222 ft | 392 kts | 236° |
| 2026-05-05 09:28 | 36.89545 | 140.58232 | 38231 ft | 392 kts | 236° |
| 2026-05-05 09:29 | 36.86115 | 140.52941 | 38228 ft | 392 kts | 236° |
| 2026-05-05 09:29 | 36.82681 | 140.47655 | 38228 ft | 392 kts | 236° |
| 2026-05-05 09:30 | 36.79248 | 140.42375 | 38228 ft | 392 kts | 236° |
| 2026-05-05 09:30 | 36.75817 | 140.37110 | 38227 ft | 390 kts | 236° |
| 2026-05-05 09:31 | 36.72706 | 140.31693 | 38212 ft | 385 kts | 240° |
| 2026-05-05 09:31 | 36.69755 | 140.26124 | 38214 ft | 385 kts | 241° |
| 2026-05-05 09:32 | 36.66824 | 140.20523 | 38213 ft | 386 kts | 241° |
| 2026-05-05 09:32 | 36.63888 | 140.14927 | 38210 ft | 386 kts | 240° |
| 2026-05-05 09:33 | 36.60943 | 140.09342 | 38212 ft | 386 kts | 240° |
| 2026-05-05 09:33 | 36.57994 | 140.03764 | 38216 ft | 385 kts | 240° |
| 2026-05-05 09:34 | 36.55039 | 139.98195 | 38219 ft | 386 kts | 240° |
| 2026-05-05 09:34 | 36.52090 | 139.92628 | 38219 ft | 385 kts | 240° |
| 2026-05-05 09:35 | 36.49141 | 139.87067 | 38220 ft | 385 kts | 240° |
| 2026-05-05 09:35 | 36.44521 | 139.78925 | 38221 ft | 387 kts | 238° |
| 2026-05-05 09:36 | 36.41304 | 139.73562 | 38161 ft | 387 kts | 238° |
| 2026-05-05 09:36 | 36.38126 | 139.68216 | 38228 ft | 383 kts | 238° |
| 2026-05-05 09:37 | 36.35006 | 139.62880 | 38227 ft | 382 kts | 238° |
| 2026-05-05 09:37 | 36.31901 | 139.57545 | 38222 ft | 381 kts | 238° |
| 2026-05-05 09:38 | 36.28790 | 139.52218 | 38222 ft | 381 kts | 238° |
| 2026-05-05 09:38 | 36.25674 | 139.46899 | 38229 ft | 381 kts | 238° |
| 2026-05-05 09:39 | 36.22558 | 139.41589 | 38226 ft | 381 kts | 238° |
| 2026-05-05 09:39 | 36.19437 | 139.36280 | 38226 ft | 381 kts | 238° |
| 2026-05-05 09:40 | 36.16458 | 139.30875 | 38221 ft | 378 kts | 244° |
| 2026-05-05 09:40 | 36.14120 | 139.25064 | 38222 ft | 377 kts | 247° |
| 2026-05-05 09:41 | 36.11929 | 139.19179 | 38218 ft | 377 kts | 248° |
| 2026-05-05 09:41 | 36.09768 | 139.13316 | 38220 ft | 378 kts | 247° |
| 2026-05-05 09:42 | 36.07575 | 139.07408 | 38221 ft | 378 kts | 247° |
| 2026-05-05 09:42 | 36.05376 | 139.01519 | 38221 ft | 377 kts | 247° |
| 2026-05-05 09:43 | 36.03175 | 138.95644 | 38216 ft | 377 kts | 248° |
| 2026-05-05 09:43 | 36.00969 | 138.89770 | 38217 ft | 377 kts | 248° |
| 2026-05-05 09:44 | 35.98760 | 138.83904 | 38219 ft | 376 kts | 247° |
| 2026-05-05 09:44 | 35.96577 | 138.78111 | 38220 ft | 375 kts | 247° |
| 2026-05-05 09:45 | 35.94378 | 138.72277 | 38209 ft | 374 kts | 247° |
| 2026-05-05 09:45 | 35.92176 | 138.66449 | 38213 ft | 375 kts | 247° |
| 2026-05-05 09:46 | 35.89972 | 138.60626 | 38211 ft | 375 kts | 247° |
| 2026-05-05 09:46 | 35.87765 | 138.54800 | 38212 ft | 374 kts | 247° |
| 2026-05-05 09:47 | 35.85543 | 138.48988 | 38237 ft | 375 kts | 247° |
| 2026-05-05 09:47 | 35.83320 | 138.43175 | 38211 ft | 375 kts | 247° |
| 2026-05-05 09:48 | 35.81092 | 138.37360 | 38218 ft | 375 kts | 247° |
| 2026-05-05 09:48 | 35.78861 | 138.31547 | 38215 ft | 375 kts | 247° |
| 2026-05-05 09:49 | 35.76633 | 138.25733 | 38212 ft | 376 kts | 247° |
| 2026-05-05 09:49 | 35.74398 | 138.19915 | 38205 ft | 376 kts | 247° |
| 2026-05-05 09:50 | 35.72148 | 138.14086 | 38225 ft | 378 kts | 247° |
| 2026-05-05 09:50 | 35.69907 | 138.08304 | 38201 ft | 376 kts | 246° |
| 2026-05-05 09:51 | 35.67656 | 138.02497 | 38233 ft | 376 kts | 246° |
| 2026-05-05 09:51 | 35.65453 | 137.96682 | 38227 ft | 375 kts | 248° |
| 2026-05-05 09:52 | 35.63361 | 137.90813 | 38228 ft | 375 kts | 248° |
| 2026-05-05 09:52 | 35.61273 | 137.84936 | 38235 ft | 376 kts | 248° |
| 2026-05-05 09:53 | 35.59159 | 137.79061 | 38229 ft | 376 kts | 248° |
| 2026-05-05 09:53 | 35.56983 | 137.73224 | 38238 ft | 375 kts | 247° |
| 2026-05-05 09:54 | 35.54766 | 137.67426 | 38243 ft | 375 kts | 247° |
| 2026-05-05 09:54 | 35.52547 | 137.61626 | 38240 ft | 375 kts | 247° |
| 2026-05-05 09:55 | 35.50336 | 137.55825 | 38259 ft | 375 kts | 247° |
| 2026-05-05 09:55 | 35.47855 | 137.50235 | 38237 ft | 378 kts | 239° |
| 2026-05-05 09:56 | 35.44344 | 137.45358 | 38240 ft | 387 kts | 228° |
| 2026-05-05 09:56 | 35.39819 | 137.41594 | 38241 ft | 399 kts | 219° |
| 2026-05-05 09:57 | 35.34931 | 137.38320 | 38224 ft | 401 kts | 218° |
| 2026-05-05 09:57 | 35.30006 | 137.35111 | 38236 ft | 401 kts | 218° |
| 2026-05-05 09:58 | 35.25102 | 137.31883 | 38237 ft | 400 kts | 218° |
| 2026-05-05 09:58 | 35.20204 | 137.28630 | 38235 ft | 400 kts | 218° |
| 2026-05-05 09:59 | 35.15313 | 137.25380 | 38233 ft | 400 kts | 218° |
| 2026-05-05 09:59 | 35.10429 | 137.22140 | 38233 ft | 399 kts | 218° |
| 2026-05-05 10:00 | 35.05549 | 137.18906 | 38230 ft | 399 kts | 218° |
| 2026-05-05 10:00 | 35.00671 | 137.15678 | 38230 ft | 399 kts | 218° |
| 2026-05-05 10:01 | 34.95822 | 137.12475 | 38222 ft | 399 kts | 218° |
| 2026-05-05 10:01 | 34.90940 | 137.09255 | 38218 ft | 399 kts | 218° |
| 2026-05-05 10:02 | 34.86051 | 137.06036 | 38222 ft | 399 kts | 218° |
| 2026-05-05 10:02 | 34.81959 | 137.03345 | 38222 ft | 399 kts | 218° |
| 2026-05-05 10:03 | 34.77107 | 137.00158 | 38228 ft | 399 kts | 218° |
| 2026-05-05 10:03 | 34.72331 | 136.96783 | 38218 ft | 392 kts | 223° |
| 2026-05-05 10:04 | 34.68347 | 136.92444 | 38225 ft | 380 kts | 234° |
| 2026-05-05 10:04 | 34.65006 | 136.87481 | 38226 ft | 379 kts | 236° |
| 2026-05-05 10:05 | 34.61774 | 136.82427 | 38198 ft | 379 kts | 236° |
| 2026-05-05 10:05 | 34.58535 | 136.77367 | 38222 ft | 380 kts | 236° |
| 2026-05-05 10:06 | 34.55277 | 136.72323 | 38224 ft | 380 kts | 236° |
| 2026-05-05 10:06 | 34.52007 | 136.67290 | 38225 ft | 380 kts | 236° |
| 2026-05-05 10:07 | 34.48730 | 136.62254 | 38222 ft | 380 kts | 236° |
| 2026-05-05 10:07 | 34.45454 | 136.57226 | 38224 ft | 380 kts | 236° |
| 2026-05-05 10:08 | 34.42169 | 136.52189 | 38221 ft | 381 kts | 236° |
| 2026-05-05 10:08 | 34.38880 | 136.47155 | 38222 ft | 381 kts | 236° |
| 2026-05-05 10:09 | 34.35613 | 136.42163 | 38222 ft | 380 kts | 236° |
| 2026-05-05 10:09 | 34.32324 | 136.37141 | 38224 ft | 381 kts | 236° |
| 2026-05-05 10:10 | 34.29030 | 136.32122 | 38211 ft | 381 kts | 236° |
| 2026-05-05 10:10 | 34.25731 | 136.27097 | 38224 ft | 381 kts | 236° |
| 2026-05-05 10:11 | 34.22435 | 136.22088 | 38208 ft | 381 kts | 236° |
| 2026-05-05 10:11 | 34.19130 | 136.17076 | 38226 ft | 381 kts | 236° |
| 2026-05-05 10:12 | 34.15824 | 136.12063 | 38225 ft | 381 kts | 236° |
| 2026-05-05 10:12 | 34.12514 | 136.07053 | 38206 ft | 382 kts | 236° |
| 2026-05-05 10:13 | 34.09206 | 136.02052 | 38218 ft | 381 kts | 236° |
| 2026-05-05 10:13 | 34.05894 | 135.97052 | 38226 ft | 382 kts | 236° |
| 2026-05-05 10:14 | 34.02574 | 135.92045 | 38224 ft | 383 kts | 236° |
| 2026-05-05 10:14 | 33.99244 | 135.87031 | 38214 ft | 383 kts | 235° |
| 2026-05-05 10:15 | 33.95915 | 135.82029 | 38220 ft | 383 kts | 236° |
| 2026-05-05 10:15 | 33.92606 | 135.77064 | 38209 ft | 382 kts | 235° |
| 2026-05-05 10:16 | 33.89282 | 135.72078 | 38202 ft | 382 kts | 236° |
| 2026-05-05 10:16 | 33.85954 | 135.67092 | 38217 ft | 382 kts | 235° |
| 2026-05-05 10:17 | 33.82618 | 135.62108 | 38214 ft | 382 kts | 235° |
| 2026-05-05 10:17 | 33.79276 | 135.57124 | 38190 ft | 383 kts | 235° |
| 2026-05-05 10:18 | 33.75931 | 135.52135 | 38218 ft | 383 kts | 235° |
| 2026-05-05 10:18 | 33.72584 | 135.47152 | 38178 ft | 383 kts | 235° |
| 2026-05-05 10:19 | 33.69235 | 135.42177 | 38188 ft | 383 kts | 235° |
| 2026-05-05 10:19 | 33.65882 | 135.37199 | 38170 ft | 383 kts | 235° |
| 2026-05-05 10:20 | 33.62525 | 135.32221 | 38180 ft | 383 kts | 235° |
| 2026-05-05 10:20 | 33.59165 | 135.27246 | 38186 ft | 384 kts | 235° |
| 2026-05-05 10:21 | 33.55806 | 135.22279 | 38188 ft | 384 kts | 235° |
| 2026-05-05 10:21 | 33.52464 | 135.17346 | 38202 ft | 384 kts | 235° |
| 2026-05-05 10:22 | 33.49097 | 135.12380 | 38207 ft | 384 kts | 235° |
| 2026-05-05 10:22 | 33.45730 | 135.07422 | 38187 ft | 384 kts | 235° |
| 2026-05-05 10:23 | 33.42352 | 135.02455 | 38214 ft | 385 kts | 235° |
| 2026-05-05 10:23 | 33.38968 | 134.97485 | 38215 ft | 385 kts | 235° |
| 2026-05-05 10:24 | 33.35586 | 134.92517 | 38213 ft | 385 kts | 235° |
| 2026-05-05 10:24 | 33.32208 | 134.87558 | 38210 ft | 385 kts | 235° |
| 2026-05-05 10:25 | 33.28827 | 134.82601 | 38207 ft | 385 kts | 235° |
| 2026-05-05 10:25 | 33.25434 | 134.77636 | 38211 ft | 386 kts | 234° |
| 2026-05-05 10:26 | 33.22038 | 134.72673 | 38212 ft | 386 kts | 234° |
| 2026-05-05 10:26 | 33.18663 | 134.67697 | 38181 ft | 385 kts | 237° |
| 2026-05-05 10:27 | 33.15961 | 134.62229 | 38211 ft | 382 kts | 247° |
| 2026-05-05 10:27 | 33.14247 | 134.56272 | 38211 ft | 382 kts | 252° |
| 2026-05-05 10:28 | 33.12762 | 134.50186 | 38213 ft | 382 kts | 253° |
| 2026-05-05 10:28 | 33.11297 | 134.44088 | 38212 ft | 382 kts | 253° |
| 2026-05-05 10:29 | 33.09811 | 134.38000 | 38210 ft | 383 kts | 252° |
| 2026-05-05 10:29 | 33.08298 | 134.31871 | 38209 ft | 383 kts | 252° |
| 2026-05-05 10:30 | 33.06798 | 134.25823 | 38207 ft | 383 kts | 252° |
| 2026-05-05 10:30 | 33.05299 | 134.19737 | 38222 ft | 382 kts | 252° |
| 2026-05-05 10:31 | 33.03829 | 134.13654 | 38194 ft | 382 kts | 253° |
| 2026-05-05 10:31 | 33.02356 | 134.07558 | 38208 ft | 383 kts | 252° |
| 2026-05-05 10:32 | 33.00875 | 134.01456 | 38223 ft | 383 kts | 252° |
| 2026-05-05 10:32 | 32.99390 | 133.95367 | 38209 ft | 382 kts | 252° |
| 2026-05-05 10:33 | 32.97905 | 133.89289 | 38205 ft | 382 kts | 252° |
| 2026-05-05 10:33 | 32.96413 | 133.83200 | 38204 ft | 383 kts | 252° |
| 2026-05-05 10:34 | 32.94918 | 133.77112 | 38204 ft | 383 kts | 252° |
| 2026-05-05 10:34 | 32.93421 | 133.71032 | 38208 ft | 383 kts | 252° |
| 2026-05-05 10:35 | 32.91923 | 133.64956 | 38206 ft | 383 kts | 252° |
| 2026-05-05 10:35 | 32.90421 | 133.58883 | 38169 ft | 382 kts | 252° |
| 2026-05-05 10:36 | 32.88918 | 133.52818 | 38201 ft | 383 kts | 252° |
| 2026-05-05 10:36 | 32.87407 | 133.46737 | 38204 ft | 383 kts | 252° |
| 2026-05-05 10:37 | 32.85893 | 133.40654 | 38217 ft | 383 kts | 252° |
| 2026-05-05 10:37 | 32.84380 | 133.34589 | 38204 ft | 382 kts | 252° |
| 2026-05-05 10:38 | 32.82865 | 133.28532 | 38181 ft | 382 kts | 252° |
| 2026-05-05 10:38 | 32.81352 | 133.22501 | 38222 ft | 384 kts | 252° |
| 2026-05-05 10:39 | 32.79817 | 133.16389 | 38199 ft | 383 kts | 252° |
| 2026-05-05 10:39 | 32.78300 | 133.10364 | 38198 ft | 383 kts | 252° |
| 2026-05-05 10:40 | 32.76771 | 133.04308 | 38199 ft | 383 kts | 252° |
| 2026-05-05 10:40 | 32.74924 | 132.98396 | 38190 ft | 381 kts | 243° |
| 2026-05-05 10:41 | 32.72456 | 132.92831 | 38192 ft | 380 kts | 242° |
| 2026-05-05 10:41 | 32.69897 | 132.87355 | 38191 ft | 379 kts | 242° |
| 2026-05-05 10:42 | 32.66044 | 132.79155 | 38189 ft | 379 kts | 242° |
| 2026-05-05 10:43 | 32.63484 | 132.73686 | 38187 ft | 379 kts | 242° |
| 2026-05-05 10:43 | 32.60926 | 132.68219 | 38186 ft | 379 kts | 242° |
| 2026-05-05 10:44 | 32.58366 | 132.62757 | 38184 ft | 379 kts | 242° |
| 2026-05-05 10:44 | 32.55803 | 132.57297 | 38184 ft | 379 kts | 242° |
| 2026-05-05 10:45 | 32.53238 | 132.51842 | 38172 ft | 379 kts | 242° |
| 2026-05-05 10:45 | 32.50666 | 132.46382 | 38174 ft | 380 kts | 242° |
| 2026-05-05 10:46 | 32.48091 | 132.40922 | 38173 ft | 380 kts | 242° |
| 2026-05-05 10:46 | 32.45516 | 132.35469 | 38183 ft | 379 kts | 242° |
| 2026-05-05 10:47 | 32.42937 | 132.30017 | 38169 ft | 380 kts | 242° |
| 2026-05-05 10:47 | 32.40354 | 132.24566 | 38189 ft | 380 kts | 242° |
| 2026-05-05 10:48 | 32.37768 | 132.19114 | 38194 ft | 380 kts | 242° |
| 2026-05-05 10:48 | 32.35179 | 132.13666 | 38181 ft | 380 kts | 241° |
| 2026-05-05 10:49 | 32.32586 | 132.08216 | 38185 ft | 381 kts | 242° |
| 2026-05-05 10:49 | 32.30423 | 132.03677 | 38183 ft | 381 kts | 242° |
| 2026-05-05 10:50 | 32.27821 | 131.98223 | 38202 ft | 381 kts | 241° |
| 2026-05-05 10:50 | 32.25215 | 131.92768 | 38180 ft | 381 kts | 241° |
| 2026-05-05 10:51 | 32.22606 | 131.87317 | 38153 ft | 381 kts | 241° |
| 2026-05-05 10:51 | 32.19990 | 131.81858 | 38184 ft | 382 kts | 242° |
| 2026-05-05 10:52 | 32.17363 | 131.76385 | 38210 ft | 383 kts | 241° |
| 2026-05-05 10:52 | 32.14736 | 131.70920 | 38186 ft | 383 kts | 241° |
| 2026-05-05 10:53 | 32.12112 | 131.65467 | 38174 ft | 382 kts | 241° |
| 2026-05-05 10:53 | 32.09479 | 131.60007 | 38164 ft | 383 kts | 241° |
| 2026-05-05 10:54 | 32.06845 | 131.54550 | 38171 ft | 383 kts | 241° |
| 2026-05-05 10:54 | 32.04205 | 131.49089 | 38149 ft | 383 kts | 241° |
| 2026-05-05 10:55 | 32.01565 | 131.43638 | 38137 ft | 383 kts | 241° |
| 2026-05-05 10:55 | 31.98943 | 131.38232 | 38132 ft | 383 kts | 241° |
| 2026-05-05 10:56 | 31.96292 | 131.32771 | 38149 ft | 384 kts | 241° |
| 2026-05-05 10:56 | 31.93636 | 131.27306 | 38148 ft | 384 kts | 241° |
| 2026-05-05 10:57 | 31.90979 | 131.21850 | 38192 ft | 384 kts | 241° |
| 2026-05-05 10:57 | 31.88318 | 131.16393 | 38172 ft | 384 kts | 241° |
| 2026-05-05 10:58 | 31.85649 | 131.10932 | 38186 ft | 385 kts | 241° |
| 2026-05-05 10:58 | 31.82990 | 131.05497 | 38175 ft | 386 kts | 241° |
| 2026-05-05 10:59 | 31.80292 | 130.99990 | 38162 ft | 386 kts | 241° |
| 2026-05-05 10:59 | 31.77627 | 130.94558 | 38151 ft | 386 kts | 241° |
| 2026-05-05 11:00 | 31.74945 | 130.89098 | 38140 ft | 386 kts | 241° |
| 2026-05-05 11:00 | 31.72257 | 130.83635 | 38141 ft | 386 kts | 241° |
| 2026-05-05 11:01 | 31.69564 | 130.78168 | 38134 ft | 386 kts | 241° |
| 2026-05-05 11:01 | 31.66871 | 130.72709 | 38138 ft | 387 kts | 241° |
| 2026-05-05 11:02 | 31.64172 | 130.67248 | 38143 ft | 387 kts | 241° |
| 2026-05-05 11:02 | 31.61472 | 130.61791 | 38182 ft | 387 kts | 241° |
| 2026-05-05 11:03 | 31.58769 | 130.56335 | 38175 ft | 387 kts | 241° |
| 2026-05-05 11:03 | 31.56062 | 130.50881 | 38172 ft | 387 kts | 241° |
| 2026-05-05 11:04 | 31.53348 | 130.45421 | 38170 ft | 388 kts | 241° |
| 2026-05-05 11:04 | 31.50628 | 130.39955 | 38164 ft | 389 kts | 241° |
| 2026-05-05 11:05 | 31.47907 | 130.34495 | 38164 ft | 388 kts | 240° |
| 2026-05-05 11:05 | 31.45186 | 130.29044 | 38165 ft | 388 kts | 240° |
| 2026-05-05 11:06 | 31.42464 | 130.23598 | 38169 ft | 387 kts | 240° |
| 2026-05-05 11:06 | 31.39734 | 130.18145 | 38161 ft | 388 kts | 240° |
| 2026-05-05 11:07 | 31.37002 | 130.12695 | 38159 ft | 388 kts | 240° |
| 2026-05-05 11:07 | 31.34267 | 130.07247 | 38160 ft | 388 kts | 240° |
| 2026-05-05 11:08 | 31.31527 | 130.01796 | 38167 ft | 389 kts | 240° |
| 2026-05-05 11:08 | 31.28704 | 129.96413 | 38141 ft | 390 kts | 236° |
| 2026-05-05 11:09 | 31.25441 | 129.91330 | 38156 ft | 391 kts | 235° |
| 2026-05-05 11:09 | 31.22122 | 129.86355 | 38154 ft | 391 kts | 234° |
| 2026-05-05 11:10 | 31.18764 | 129.81359 | 38152 ft | 391 kts | 234° |
| 2026-05-05 11:10 | 31.15410 | 129.76364 | 38140 ft | 390 kts | 235° |
| 2026-05-05 11:11 | 31.12062 | 129.71370 | 38149 ft | 390 kts | 235° |
| 2026-05-05 11:11 | 31.08715 | 129.66382 | 38146 ft | 391 kts | 234° |
| 2026-05-05 11:12 | 31.05361 | 129.61391 | 38147 ft | 391 kts | 234° |
| 2026-05-05 11:12 | 31.02010 | 129.56410 | 38155 ft | 390 kts | 235° |
| 2026-05-05 11:13 | 30.98659 | 129.51436 | 38149 ft | 390 kts | 235° |
| 2026-05-05 11:13 | 30.95306 | 129.46465 | 38148 ft | 390 kts | 235° |
| 2026-05-05 11:14 | 30.91953 | 129.41501 | 38146 ft | 390 kts | 235° |
| 2026-05-05 11:14 | 30.88598 | 129.36540 | 38148 ft | 390 kts | 235° |
| 2026-05-05 11:15 | 30.85242 | 129.31584 | 38146 ft | 390 kts | 234° |
| 2026-05-05 11:15 | 30.81885 | 129.26633 | 38146 ft | 389 kts | 234° |
| 2026-05-05 11:16 | 30.78530 | 129.21691 | 38147 ft | 389 kts | 234° |
| 2026-05-05 11:16 | 30.75186 | 129.16733 | 38146 ft | 389 kts | 235° |
| 2026-05-05 11:17 | 30.71916 | 129.11724 | 38165 ft | 390 kts | 236° |
| 2026-05-05 11:17 | 30.68665 | 129.06735 | 38147 ft | 390 kts | 236° |
| 2026-05-05 11:18 | 30.65379 | 129.01726 | 38148 ft | 390 kts | 235° |
| 2026-05-05 11:18 | 30.62082 | 128.96722 | 38147 ft | 390 kts | 235° |
| 2026-05-05 11:19 | 30.58782 | 128.91723 | 38120 ft | 390 kts | 235° |
| 2026-05-05 11:19 | 30.55478 | 128.86723 | 38153 ft | 390 kts | 235° |
| 2026-05-05 11:20 | 30.52173 | 128.81726 | 38145 ft | 390 kts | 235° |
| 2026-05-05 11:20 | 30.48865 | 128.76731 | 38146 ft | 390 kts | 235° |
| 2026-05-05 11:21 | 30.45557 | 128.71742 | 38143 ft | 390 kts | 235° |
| 2026-05-05 11:21 | 30.42244 | 128.66753 | 38139 ft | 391 kts | 235° |
| 2026-05-05 11:22 | 30.38925 | 128.61761 | 38148 ft | 391 kts | 235° |
| 2026-05-05 11:22 | 30.35611 | 128.56782 | 38140 ft | 390 kts | 235° |
| 2026-05-05 11:23 | 30.32312 | 128.51832 | 38143 ft | 390 kts | 235° |
| 2026-05-05 11:23 | 30.28994 | 128.46860 | 38126 ft | 391 kts | 235° |
| 2026-05-05 11:24 | 30.25671 | 128.41885 | 38140 ft | 391 kts | 235° |
| 2026-05-05 11:24 | 30.22345 | 128.36913 | 38138 ft | 391 kts | 235° |
| 2026-05-05 11:25 | 30.19018 | 128.31946 | 38139 ft | 391 kts | 235° |
| 2026-05-05 11:25 | 30.15687 | 128.26978 | 38140 ft | 391 kts | 235° |
| 2026-05-05 11:26 | 30.12355 | 128.22017 | 38148 ft | 391 kts | 235° |
| 2026-05-05 11:26 | 30.09020 | 128.17056 | 38150 ft | 391 kts | 235° |
| 2026-05-05 11:27 | 30.05685 | 128.12102 | 38138 ft | 391 kts | 235° |
| 2026-05-05 11:27 | 30.02350 | 128.07153 | 38138 ft | 391 kts | 235° |
| 2026-05-05 11:28 | 29.99033 | 128.02236 | 38145 ft | 391 kts | 234° |
| 2026-05-05 11:28 | 29.95691 | 127.97289 | 38128 ft | 391 kts | 234° |
| 2026-05-05 11:29 | 29.92346 | 127.92345 | 38140 ft | 391 kts | 234° |
| 2026-05-05 11:29 | 29.88996 | 127.87399 | 38133 ft | 391 kts | 234° |
| 2026-05-05 11:30 | 29.85641 | 127.82459 | 38134 ft | 392 kts | 234° |
| 2026-05-05 11:30 | 29.82121 | 127.77659 | 38134 ft | 392 kts | 232° |
| 2026-05-05 11:31 | 29.78524 | 127.72932 | 38133 ft | 393 kts | 232° |
| 2026-05-05 11:31 | 29.74944 | 127.68189 | 38126 ft | 392 kts | 232° |
| 2026-05-05 11:32 | 29.71381 | 127.63428 | 38130 ft | 392 kts | 232° |
| 2026-05-05 11:32 | 29.67849 | 127.58698 | 38127 ft | 393 kts | 232° |
| 2026-05-05 11:33 | 29.64287 | 127.53932 | 38128 ft | 393 kts | 232° |
| 2026-05-05 11:33 | 29.60714 | 127.49161 | 38130 ft | 393 kts | 232° |
| 2026-05-05 11:34 | 29.57157 | 127.44388 | 38130 ft | 392 kts | 233° |
| 2026-05-05 11:34 | 29.53769 | 127.39480 | 38097 ft | 392 kts | 234° |
| 2026-05-05 11:35 | 29.50421 | 127.34531 | 38124 ft | 393 kts | 234° |
| 2026-05-05 11:35 | 29.47039 | 127.29592 | 38127 ft | 393 kts | 234° |
| 2026-05-05 11:36 | 29.43635 | 127.24671 | 38127 ft | 394 kts | 234° |
| 2026-05-05 11:36 | 29.40249 | 127.19793 | 38126 ft | 393 kts | 234° |
| 2026-05-05 11:37 | 29.36845 | 127.14892 | 38117 ft | 394 kts | 234° |
| 2026-05-05 11:37 | 29.33428 | 127.09975 | 38127 ft | 395 kts | 234° |
| 2026-05-05 11:38 | 29.30003 | 127.05053 | 38124 ft | 395 kts | 234° |
| 2026-05-05 11:38 | 29.26575 | 127.00133 | 38124 ft | 395 kts | 234° |
| 2026-05-05 11:39 | 29.23149 | 126.95223 | 38122 ft | 394 kts | 234° |
| 2026-05-05 11:39 | 29.19725 | 126.90320 | 38124 ft | 394 kts | 234° |
| 2026-05-05 11:40 | 29.16303 | 126.85426 | 38121 ft | 394 kts | 234° |
| 2026-05-05 11:40 | 29.12878 | 126.80532 | 38118 ft | 394 kts | 234° |
| 2026-05-05 11:41 | 29.10026 | 126.76462 | 38121 ft | 394 kts | 234° |
| 2026-05-05 11:41 | 29.06040 | 126.70782 | 38080 ft | 393 kts | 234° |
| 2026-05-05 11:42 | 29.03166 | 126.66691 | 38119 ft | 394 kts | 234° |
| 2026-05-05 11:42 | 28.99751 | 126.61833 | 38118 ft | 394 kts | 234° |
| 2026-05-05 11:43 | 28.96313 | 126.56954 | 38116 ft | 394 kts | 234° |
| 2026-05-05 11:43 | 28.92788 | 126.52146 | 38118 ft | 395 kts | 232° |
| 2026-05-05 11:44 | 28.89217 | 126.47379 | 38108 ft | 395 kts | 232° |
| 2026-05-05 11:44 | 28.85652 | 126.42606 | 38118 ft | 395 kts | 233° |
| 2026-05-05 11:45 | 28.82096 | 126.37825 | 38118 ft | 395 kts | 233° |
| 2026-05-05 11:45 | 28.78540 | 126.33042 | 38118 ft | 395 kts | 233° |
| 2026-05-05 11:46 | 28.74981 | 126.28261 | 38118 ft | 395 kts | 233° |
| 2026-05-05 11:46 | 28.71421 | 126.23483 | 38123 ft | 397 kts | 232° |
| 2026-05-05 11:47 | 28.67845 | 126.18690 | 38118 ft | 397 kts | 232° |
| 2026-05-05 11:47 | 28.64264 | 126.13897 | 38113 ft | 397 kts | 232° |
| 2026-05-05 11:48 | 28.59004 | 126.06614 | 38113 ft | 397 kts | 234° |
| 2026-05-05 11:48 | 28.55591 | 126.01732 | 38114 ft | 397 kts | 234° |
| 2026-05-05 11:49 | 28.52141 | 125.96835 | 38113 ft | 397 kts | 234° |
| 2026-05-05 11:49 | 28.48678 | 125.91955 | 38113 ft | 397 kts | 234° |
| 2026-05-05 11:50 | 28.45207 | 125.87078 | 38116 ft | 397 kts | 234° |
| 2026-05-05 11:50 | 28.41737 | 125.82208 | 38115 ft | 397 kts | 234° |
| 2026-05-05 11:51 | 28.38262 | 125.77335 | 38115 ft | 398 kts | 233° |
| 2026-05-05 11:51 | 28.34777 | 125.72453 | 38113 ft | 398 kts | 234° |
| 2026-05-05 11:52 | 28.31290 | 125.67574 | 38116 ft | 397 kts | 234° |
| 2026-05-05 11:52 | 28.27810 | 125.62710 | 38116 ft | 397 kts | 234° |
| 2026-05-05 11:53 | 28.24324 | 125.57844 | 38114 ft | 397 kts | 233° |
| 2026-05-05 11:53 | 28.20837 | 125.52982 | 38116 ft | 398 kts | 233° |
| 2026-05-05 11:54 | 28.17335 | 125.48104 | 38110 ft | 399 kts | 233° |
| 2026-05-05 11:54 | 28.13842 | 125.43246 | 38114 ft | 397 kts | 233° |
| 2026-05-05 11:55 | 28.10357 | 125.38404 | 38113 ft | 396 kts | 233° |
| 2026-05-05 11:55 | 28.06871 | 125.33565 | 38115 ft | 396 kts | 233° |
| 2026-05-05 11:56 | 28.03379 | 125.28721 | 38109 ft | 399 kts | 233° |
| 2026-05-05 11:56 | 27.99881 | 125.23877 | 38132 ft | 401 kts | 233° |
| 2026-05-05 11:57 | 27.96339 | 125.18980 | 38118 ft | 398 kts | 233° |
| 2026-05-05 11:57 | 27.92859 | 125.14173 | 38123 ft | 398 kts | 233° |
| 2026-05-05 11:58 | 27.89350 | 125.09330 | 38115 ft | 398 kts | 233° |
| 2026-05-05 11:58 | 27.85837 | 125.04485 | 38107 ft | 400 kts | 233° |
| 2026-05-05 11:59 | 27.82304 | 124.99618 | 38110 ft | 401 kts | 233° |
| 2026-05-05 11:59 | 27.78769 | 124.94758 | 38108 ft | 399 kts | 233° |
| 2026-05-05 12:00 | 27.75253 | 124.89929 | 38116 ft | 398 kts | 233° |
| 2026-05-05 12:00 | 27.71739 | 124.85106 | 38114 ft | 397 kts | 233° |
| 2026-05-05 12:01 | 27.68218 | 124.80278 | 38107 ft | 401 kts | 233° |
| 2026-05-05 12:01 | 27.64667 | 124.75413 | 38107 ft | 402 kts | 233° |
| 2026-05-05 12:02 | 27.61106 | 124.70547 | 38102 ft | 401 kts | 233° |
| 2026-05-05 12:02 | 27.57574 | 124.65717 | 38105 ft | 398 kts | 233° |
| 2026-05-05 12:03 | 27.54075 | 124.60930 | 38102 ft | 398 kts | 233° |
| 2026-05-05 12:03 | 27.50523 | 124.56075 | 38103 ft | 401 kts | 233° |
| 2026-05-05 12:04 | 27.46984 | 124.51246 | 38102 ft | 403 kts | 233° |
| 2026-05-05 12:04 | 27.43410 | 124.46378 | 38110 ft | 403 kts | 233° |
| 2026-05-05 12:05 | 27.39848 | 124.41533 | 38100 ft | 401 kts | 233° |
| 2026-05-05 12:05 | 27.36293 | 124.36702 | 38100 ft | 401 kts | 233° |
| 2026-05-05 12:06 | 27.32735 | 124.31870 | 38100 ft | 402 kts | 233° |
| 2026-05-05 12:06 | 27.29152 | 124.27009 | 38099 ft | 404 kts | 233° |
| 2026-05-05 12:07 | 27.25567 | 124.22152 | 38097 ft | 404 kts | 233° |
| 2026-05-05 12:07 | 27.21981 | 124.17302 | 38096 ft | 402 kts | 233° |
| 2026-05-05 12:08 | 27.18410 | 124.12475 | 38100 ft | 401 kts | 233° |
| 2026-05-05 12:08 | 27.14837 | 124.07650 | 38100 ft | 404 kts | 233° |
| 2026-05-05 12:09 | 27.11231 | 124.02785 | 38092 ft | 406 kts | 233° |
| 2026-05-05 12:09 | 27.07608 | 123.97916 | 38093 ft | 406 kts | 233° |
| 2026-05-05 12:10 | 27.03987 | 123.93104 | 38097 ft | 405 kts | 233° |
| 2026-05-05 12:10 | 27.00361 | 123.88298 | 38097 ft | 402 kts | 233° |
| 2026-05-05 12:11 | 26.96743 | 123.83502 | 38090 ft | 404 kts | 233° |
| 2026-05-05 12:11 | 26.93105 | 123.78678 | 38095 ft | 406 kts | 233° |
| 2026-05-05 12:12 | 26.89454 | 123.73845 | 38089 ft | 406 kts | 233° |
| 2026-05-05 12:12 | 26.85795 | 123.69007 | 38093 ft | 406 kts | 233° |
| 2026-05-05 12:13 | 26.82172 | 123.64222 | 38089 ft | 405 kts | 232° |
| 2026-05-05 12:13 | 26.78535 | 123.59425 | 38092 ft | 404 kts | 232° |
| 2026-05-05 12:14 | 26.74901 | 123.54634 | 38086 ft | 404 kts | 232° |
| 2026-05-05 12:14 | 26.71263 | 123.49845 | 38086 ft | 404 kts | 232° |
| 2026-05-05 12:15 | 26.67624 | 123.45058 | 38090 ft | 404 kts | 232° |
| 2026-05-05 12:15 | 26.63983 | 123.40281 | 38090 ft | 404 kts | 232° |
| 2026-05-05 12:16 | 26.60342 | 123.35505 | 38078 ft | 404 kts | 232° |
| 2026-05-05 12:16 | 26.56690 | 123.30713 | 38086 ft | 405 kts | 232° |
| 2026-05-05 12:17 | 26.53029 | 123.25919 | 38085 ft | 406 kts | 232° |
| 2026-05-05 12:17 | 26.49367 | 123.21129 | 38087 ft | 406 kts | 232° |
| 2026-05-05 12:18 | 26.45698 | 123.16336 | 38084 ft | 406 kts | 232° |
| 2026-05-05 12:18 | 26.42058 | 123.11587 | 38042 ft | 405 kts | 232° |
| 2026-05-05 12:19 | 26.38382 | 123.06794 | 38077 ft | 408 kts | 232° |
| 2026-05-05 12:19 | 26.34684 | 123.01979 | 38156 ft | 409 kts | 232° |
| 2026-05-05 12:20 | 26.32837 | 122.99577 | 38467 ft | 407 kts | 232° |
| 2026-05-05 12:20 | 26.31001 | 122.97188 | 38833 ft | 404 kts | 233° |
| 2026-05-05 12:20 | 26.29170 | 122.94810 | 39055 ft | 404 kts | 233° |
| 2026-05-05 12:20 | 26.27337 | 122.92431 | 39166 ft | 405 kts | 233° |
| 2026-05-05 12:21 | 26.25499 | 122.90045 | 39282 ft | 407 kts | 233° |
| 2026-05-05 12:21 | 26.23654 | 122.87652 | 39444 ft | 407 kts | 232° |
| 2026-05-05 12:21 | 26.19948 | 122.82849 | 39618 ft | 411 kts | 233° |
| 2026-05-05 12:22 | 26.18084 | 122.80436 | 39734 ft | 412 kts | 233° |
| 2026-05-05 12:22 | 26.16215 | 122.78017 | 39876 ft | 412 kts | 233° |
| 2026-05-05 12:22 | 26.14345 | 122.75598 | 40013 ft | 413 kts | 233° |
| 2026-05-05 12:22 | 26.12470 | 122.73174 | 40065 ft | 415 kts | 233° |
| 2026-05-05 12:23 | 26.08703 | 122.68308 | 40086 ft | 415 kts | 232° |
| 2026-05-05 12:23 | 26.04954 | 122.63471 | 40066 ft | 415 kts | 232° |
| 2026-05-05 12:24 | 26.01160 | 122.58581 | 40071 ft | 415 kts | 232° |
| 2026-05-05 12:24 | 25.97411 | 122.53753 | 40071 ft | 415 kts | 232° |
| 2026-05-05 12:25 | 25.93634 | 122.48895 | 40068 ft | 415 kts | 232° |
| 2026-05-05 12:25 | 25.89856 | 122.44036 | 40064 ft | 415 kts | 232° |
| 2026-05-05 12:26 | 25.86079 | 122.39185 | 40068 ft | 415 kts | 232° |
| 2026-05-05 12:26 | 25.82293 | 122.34329 | 40073 ft | 416 kts | 232° |
| 2026-05-05 12:27 | 25.78496 | 122.29461 | 40064 ft | 417 kts | 232° |
| 2026-05-05 12:27 | 25.74695 | 122.24595 | 40061 ft | 417 kts | 232° |
| 2026-05-05 12:28 | 25.70892 | 122.19733 | 40059 ft | 417 kts | 232° |
| 2026-05-05 12:28 | 25.67085 | 122.14869 | 40058 ft | 417 kts | 232° |
| 2026-05-05 12:29 | 25.63279 | 122.10012 | 40031 ft | 417 kts | 232° |
| 2026-05-05 12:29 | 25.59466 | 122.05143 | 40061 ft | 419 kts | 232° |
| 2026-05-05 12:30 | 25.55651 | 122.00260 | 40055 ft | 419 kts | 232° |
| 2026-05-05 12:30 | 25.51827 | 121.95395 | 40038 ft | 419 kts | 232° |
| 2026-05-05 12:31 | 25.48644 | 121.91358 | 40043 ft | 419 kts | 232° |
| 2026-05-05 12:31 | 25.44815 | 121.86504 | 40041 ft | 419 kts | 232° |
| 2026-05-05 12:32 | 25.40983 | 121.81649 | 40023 ft | 420 kts | 232° |
| 2026-05-05 12:32 | 25.37137 | 121.76779 | 40025 ft | 420 kts | 232° |
| 2026-05-05 12:33 | 25.33297 | 121.71925 | 40010 ft | 419 kts | 232° |
| 2026-05-05 12:33 | 25.29460 | 121.67077 | 40014 ft | 419 kts | 232° |
| 2026-05-05 12:34 | 25.25645 | 121.62262 | 40015 ft | 419 kts | 232° |
| 2026-05-05 12:34 | 25.21811 | 121.57427 | 40005 ft | 419 kts | 232° |
| 2026-05-05 12:35 | 25.17947 | 121.52562 | 40022 ft | 423 kts | 232° |
| 2026-05-05 12:35 | 25.14033 | 121.47733 | 40021 ft | 422 kts | 231° |
| 2026-05-05 12:36 | 25.10072 | 121.42953 | 40015 ft | 422 kts | 231° |
| 2026-05-05 12:36 | 25.06111 | 121.38172 | 40018 ft | 422 kts | 231° |
| 2026-05-05 12:37 | 25.02162 | 121.33393 | 40006 ft | 421 kts | 231° |
| 2026-05-05 12:37 | 24.98204 | 121.28599 | 40019 ft | 424 kts | 231° |
| 2026-05-05 12:38 | 24.94232 | 121.23795 | 40033 ft | 424 kts | 231° |
| 2026-05-05 12:38 | 24.90264 | 121.19003 | 40020 ft | 423 kts | 231° |
| 2026-05-05 12:39 | 24.86303 | 121.14223 | 40016 ft | 422 kts | 231° |
| 2026-05-05 12:39 | 24.82340 | 121.09444 | 40023 ft | 422 kts | 231° |
| 2026-05-05 12:40 | 24.78379 | 121.04673 | 40017 ft | 422 kts | 231° |
| 2026-05-05 12:40 | 24.74438 | 120.99930 | 40025 ft | 423 kts | 231° |
| 2026-05-05 12:41 | 24.70445 | 120.95130 | 40013 ft | 422 kts | 231° |
| 2026-05-05 12:41 | 24.66483 | 120.90374 | 40013 ft | 421 kts | 231° |
| 2026-05-05 12:42 | 24.62552 | 120.85658 | 40014 ft | 421 kts | 231° |
| 2026-05-05 12:42 | 24.58596 | 120.80918 | 40027 ft | 421 kts | 231° |
| 2026-05-05 12:43 | 24.54625 | 120.76165 | 40032 ft | 422 kts | 231° |
| 2026-05-05 12:43 | 24.50650 | 120.71411 | 40032 ft | 423 kts | 231° |
| 2026-05-05 12:44 | 24.46676 | 120.66663 | 40037 ft | 422 kts | 231° |
| 2026-05-05 12:44 | 24.42698 | 120.61915 | 40041 ft | 422 kts | 231° |
| 2026-05-05 12:45 | 24.38722 | 120.57174 | 40017 ft | 422 kts | 231° |
| 2026-05-05 12:45 | 24.34731 | 120.52419 | 40041 ft | 425 kts | 231° |
| 2026-05-05 12:46 | 24.30724 | 120.47651 | 40043 ft | 426 kts | 231° |
| 2026-05-05 12:46 | 24.26735 | 120.42909 | 40042 ft | 426 kts | 231° |
| 2026-05-05 12:47 | 24.22718 | 120.38140 | 40040 ft | 425 kts | 231° |
| 2026-05-05 12:47 | 24.18713 | 120.33389 | 40037 ft | 424 kts | 231° |
| 2026-05-05 12:48 | 24.14711 | 120.28646 | 40032 ft | 425 kts | 231° |
| 2026-05-05 12:48 | 24.10694 | 120.23888 | 40031 ft | 426 kts | 231° |
| 2026-05-05 12:49 | 24.06667 | 120.19124 | 40031 ft | 426 kts | 231° |
| 2026-05-05 12:49 | 24.02639 | 120.14365 | 40031 ft | 426 kts | 231° |
| 2026-05-05 12:50 | 23.98611 | 120.09610 | 40036 ft | 426 kts | 231° |
| 2026-05-05 12:50 | 23.94581 | 120.04857 | 40011 ft | 426 kts | 231° |
| 2026-05-05 12:51 | 23.90533 | 120.00087 | 40029 ft | 429 kts | 231° |
| 2026-05-05 12:51 | 23.86468 | 119.95303 | 40029 ft | 430 kts | 231° |
| 2026-05-05 12:52 | 23.82398 | 119.90518 | 40023 ft | 430 kts | 231° |
| 2026-05-05 12:52 | 23.78327 | 119.85738 | 40028 ft | 430 kts | 231° |
| 2026-05-05 12:53 | 23.74254 | 119.80957 | 40021 ft | 430 kts | 231° |
| 2026-05-05 12:53 | 23.70202 | 119.76207 | 40016 ft | 431 kts | 231° |
| 2026-05-05 12:54 | 23.64051 | 119.69003 | 40020 ft | 433 kts | 231° |
| 2026-05-05 12:55 | 23.60019 | 119.64142 | 40021 ft | 431 kts | 236° |
| 2026-05-05 12:55 | 23.56651 | 119.58782 | 40019 ft | 428 kts | 240° |
| 2026-05-05 12:56 | 23.53464 | 119.53301 | 40029 ft | 428 kts | 241° |
| 2026-05-05 12:56 | 23.50304 | 119.47807 | 40005 ft | 428 kts | 241° |
| 2026-05-05 12:57 | 23.47125 | 119.42303 | 40010 ft | 430 kts | 240° |
| 2026-05-05 12:57 | 23.43924 | 119.36789 | 40006 ft | 431 kts | 240° |
| 2026-05-05 12:58 | 23.40718 | 119.31280 | 40011 ft | 431 kts | 240° |
| 2026-05-05 12:58 | 23.37507 | 119.25768 | 40006 ft | 431 kts | 240° |
| 2026-05-05 12:59 | 23.34298 | 119.20265 | 40022 ft | 431 kts | 240° |
| 2026-05-05 12:59 | 23.31089 | 119.14765 | 40020 ft | 431 kts | 240° |
| 2026-05-05 13:00 | 23.26256 | 119.06493 | 40027 ft | 432 kts | 240° |
| 2026-05-05 13:01 | 23.19794 | 118.95457 | 40028 ft | 433 kts | 240° |
| 2026-05-05 13:01 | 23.16557 | 118.89937 | 40018 ft | 433 kts | 241° |
| 2026-05-05 13:02 | 23.13321 | 118.84425 | 40033 ft | 433 kts | 241° |
| 2026-05-05 13:02 | 23.10101 | 118.78945 | 40034 ft | 433 kts | 241° |
| 2026-05-05 13:03 | 23.06855 | 118.73427 | 40025 ft | 435 kts | 240° |
| 2026-05-05 13:03 | 23.03590 | 118.67883 | 40026 ft | 436 kts | 240° |
| 2026-05-05 13:04 | 23.00320 | 118.62337 | 40035 ft | 436 kts | 241° |
| 2026-05-05 13:04 | 22.97048 | 118.56794 | 40024 ft | 436 kts | 241° |
| 2026-05-05 13:05 | 22.93786 | 118.51273 | 40029 ft | 436 kts | 241° |
| 2026-05-05 13:05 | 22.90499 | 118.45747 | 40031 ft | 436 kts | 240° |
| 2026-05-05 13:06 | 22.87202 | 118.40220 | 40011 ft | 437 kts | 240° |
| 2026-05-05 13:06 | 22.83893 | 118.34671 | 40032 ft | 439 kts | 241° |
| 2026-05-05 13:07 | 22.80571 | 118.29104 | 40029 ft | 440 kts | 241° |
| 2026-05-05 13:07 | 22.77245 | 118.23536 | 40026 ft | 440 kts | 241° |
| 2026-05-05 13:08 | 22.73917 | 118.17969 | 40025 ft | 440 kts | 241° |
| 2026-05-05 13:08 | 22.70586 | 118.12404 | 40024 ft | 440 kts | 241° |
| 2026-05-05 13:09 | 22.67255 | 118.06846 | 40031 ft | 440 kts | 241° |
| 2026-05-05 13:09 | 22.63918 | 118.01284 | 40026 ft | 440 kts | 241° |
| 2026-05-05 13:10 | 22.60580 | 117.95724 | 40021 ft | 441 kts | 241° |
| 2026-05-05 13:10 | 22.57274 | 117.90197 | 40021 ft | 440 kts | 241° |
| 2026-05-05 13:11 | 22.53970 | 117.84618 | 40021 ft | 440 kts | 241° |
| 2026-05-05 13:11 | 22.50662 | 117.79041 | 40021 ft | 441 kts | 241° |
| 2026-05-05 13:12 | 22.47345 | 117.73468 | 40021 ft | 441 kts | 241° |
| 2026-05-05 13:12 | 22.44024 | 117.67898 | 40008 ft | 441 kts | 241° |
| 2026-05-05 13:13 | 22.40685 | 117.62302 | 40019 ft | 444 kts | 241° |
| 2026-05-05 13:13 | 22.37333 | 117.56692 | 40019 ft | 444 kts | 241° |
| 2026-05-05 13:14 | 22.34507 | 117.50807 | 40019 ft | 438 kts | 253° |
| 2026-05-05 13:14 | 22.33261 | 117.44420 | 40030 ft | 434 kts | 268° |
| 2026-05-05 13:15 | 22.33037 | 117.37910 | 40025 ft | 434 kts | 270° |
| 2026-05-05 13:15 | 22.32963 | 117.31386 | 40025 ft | 434 kts | 270° |
| 2026-05-05 13:16 | 22.32880 | 117.24861 | 40017 ft | 434 kts | 270° |
| 2026-05-05 13:16 | 22.32767 | 117.18335 | 40017 ft | 434 kts | 269° |
| 2026-05-05 13:17 | 22.32641 | 117.11814 | 40019 ft | 434 kts | 270° |
| 2026-05-05 13:17 | 22.32512 | 117.05303 | 40022 ft | 434 kts | 270° |
| 2026-05-05 13:18 | 22.32381 | 116.98790 | 40020 ft | 434 kts | 270° |
| 2026-05-05 13:18 | 22.32247 | 116.92276 | 40022 ft | 434 kts | 270° |
| 2026-05-05 13:19 | 22.32112 | 116.85770 | 40026 ft | 434 kts | 270° |
| 2026-05-05 13:19 | 22.31974 | 116.79291 | 40020 ft | 434 kts | 270° |
| 2026-05-05 13:20 | 22.31833 | 116.72745 | 40024 ft | 437 kts | 270° |
| 2026-05-05 13:20 | 22.31689 | 116.66180 | 40024 ft | 438 kts | 270° |
| 2026-05-05 13:21 | 22.31541 | 116.59611 | 40024 ft | 438 kts | 270° |
| 2026-05-05 13:21 | 22.31391 | 116.53039 | 39963 ft | 438 kts | 270° |
| 2026-05-05 13:22 | 22.31341 | 116.50864 | 39814 ft | 437 kts | 270° |
| 2026-05-05 13:22 | 22.31264 | 116.47579 | 39581 ft | 438 kts | 270° |
| 2026-05-05 13:22 | 22.31187 | 116.44291 | 39352 ft | 438 kts | 270° |
| 2026-05-05 13:22 | 22.31109 | 116.41001 | 39124 ft | 438 kts | 269° |
| 2026-05-05 13:23 | 22.31031 | 116.37712 | 38899 ft | 439 kts | 269° |
| 2026-05-05 13:23 | 22.30952 | 116.34417 | 38676 ft | 439 kts | 269° |
| 2026-05-05 13:23 | 22.30871 | 116.31116 | 38401 ft | 439 kts | 269° |
| 2026-05-05 13:23 | 22.30790 | 116.27823 | 38134 ft | 439 kts | 269° |
| 2026-05-05 13:24 | 22.30708 | 116.24518 | 37863 ft | 440 kts | 269° |
| 2026-05-05 13:24 | 22.30625 | 116.21213 | 37598 ft | 441 kts | 269° |
| 2026-05-05 13:24 | 22.30542 | 116.17904 | 37345 ft | 441 kts | 269° |
| 2026-05-05 13:24 | 22.30458 | 116.14594 | 37101 ft | 442 kts | 269° |
| 2026-05-05 13:25 | 22.30374 | 116.11276 | 36842 ft | 441 kts | 269° |
| 2026-05-05 13:25 | 22.30289 | 116.07988 | 36347 ft | 436 kts | 269° |
| 2026-05-05 13:25 | 22.30204 | 116.04725 | 35740 ft | 433 kts | 269° |
| 2026-05-05 13:25 | 22.30119 | 116.01480 | 35105 ft | 432 kts | 269° |
| 2026-05-05 13:26 | 22.30034 | 115.98235 | 34434 ft | 431 kts | 269° |
| 2026-05-05 13:26 | 22.29948 | 115.94997 | 33661 ft | 432 kts | 269° |
| 2026-05-05 13:26 | 22.29862 | 115.91751 | 32893 ft | 432 kts | 270° |
| 2026-05-05 13:26 | 22.29774 | 115.88512 | 32140 ft | 432 kts | 270° |
| 2026-05-05 13:27 | 22.29687 | 115.85271 | 31383 ft | 432 kts | 270° |
| 2026-05-05 13:27 | 22.29598 | 115.82027 | 30574 ft | 433 kts | 270° |
| 2026-05-05 13:27 | 22.29511 | 115.78774 | 29743 ft | 434 kts | 270° |
| 2026-05-05 13:27 | 22.29425 | 115.75530 | 29020 ft | 431 kts | 270° |
| 2026-05-05 13:28 | 22.29341 | 115.72305 | 28393 ft | 427 kts | 269° |
| 2026-05-05 13:28 | 22.29257 | 115.69111 | 27778 ft | 424 kts | 269° |
| 2026-05-05 13:28 | 22.29175 | 115.65943 | 27177 ft | 421 kts | 269° |
| 2026-05-05 13:28 | 22.29091 | 115.62798 | 26590 ft | 418 kts | 269° |
| 2026-05-05 13:29 | 22.29006 | 115.59671 | 25980 ft | 415 kts | 269° |
| 2026-05-05 13:29 | 22.28919 | 115.56570 | 25387 ft | 412 kts | 269° |
| 2026-05-05 13:29 | 22.28833 | 115.53490 | 24800 ft | 409 kts | 268° |
| 2026-05-05 13:29 | 22.28748 | 115.50426 | 24214 ft | 407 kts | 268° |
| 2026-05-05 13:30 | 22.28662 | 115.47386 | 23632 ft | 404 kts | 268° |
| 2026-05-05 13:30 | 22.28576 | 115.44363 | 22975 ft | 401 kts | 268° |
| 2026-05-05 13:30 | 22.28490 | 115.41365 | 22373 ft | 398 kts | 268° |
| 2026-05-05 13:30 | 22.28406 | 115.38426 | 21805 ft | 395 kts | 268° |
| 2026-05-05 13:31 | 22.28320 | 115.35478 | 21240 ft | 391 kts | 268° |
| 2026-05-05 13:31 | 22.28235 | 115.32516 | 20657 ft | 388 kts | 268° |
| 2026-05-05 13:31 | 22.28150 | 115.29647 | 20090 ft | 386 kts | 268° |
| 2026-05-05 13:31 | 22.28059 | 115.26723 | 19510 ft | 384 kts | 268° |
| 2026-05-05 13:32 | 22.27971 | 115.23891 | 18939 ft | 381 kts | 268° |
| 2026-05-05 13:32 | 22.27883 | 115.21045 | 18352 ft | 377 kts | 268° |
| 2026-05-05 13:32 | 22.27795 | 115.18227 | 17711 ft | 374 kts | 268° |
| 2026-05-05 13:32 | 22.27708 | 115.15435 | 17116 ft | 370 kts | 268° |
| 2026-05-05 13:33 | 22.27622 | 115.12671 | 16532 ft | 367 kts | 268° |
| 2026-05-05 13:33 | 22.27536 | 115.09921 | 15946 ft | 365 kts | 268° |
| 2026-05-05 13:33 | 22.27449 | 115.07188 | 15357 ft | 363 kts | 268° |
| 2026-05-05 13:33 | 22.27363 | 115.04467 | 14770 ft | 362 kts | 268° |
| 2026-05-05 13:34 | 22.27276 | 115.01765 | 14181 ft | 360 kts | 267° |
| 2026-05-05 13:34 | 22.27190 | 114.99070 | 13559 ft | 357 kts | 267° |
| 2026-05-05 13:34 | 22.27103 | 114.96394 | 12944 ft | 355 kts | 267° |
| 2026-05-05 13:34 | 22.27017 | 114.93742 | 12479 ft | 349 kts | 267° |
| 2026-05-05 13:35 | 22.26935 | 114.91192 | 12359 ft | 331 kts | 267° |
| 2026-05-05 13:35 | 22.26856 | 114.88773 | 12253 ft | 314 kts | 267° |
| 2026-05-05 13:35 | 22.26780 | 114.86466 | 12141 ft | 301 kts | 267° |
| 2026-05-05 13:35 | 22.26706 | 114.84234 | 12023 ft | 298 kts | 267° |
| 2026-05-05 13:36 | 22.26630 | 114.81993 | 11710 ft | 299 kts | 267° |
| 2026-05-05 13:36 | 22.26446 | 114.79761 | 11282 ft | 298 kts | 258° |
| 2026-05-05 13:36 | 22.25744 | 114.77702 | 10934 ft | 297 kts | 239° |
| 2026-05-05 13:36 | 22.24404 | 114.75909 | 10858 ft | 315 kts | 226° |
| 2026-05-05 13:37 | 22.22816 | 114.74254 | 10726 ft | 319 kts | 224° |
| 2026-05-05 13:37 | 22.21200 | 114.72619 | 10543 ft | 318 kts | 224° |
| 2026-05-05 13:37 | 22.19592 | 114.70988 | 10387 ft | 316 kts | 224° |
| 2026-05-05 13:37 | 22.18034 | 114.69401 | 10278 ft | 300 kts | 224° |
| 2026-05-05 13:38 | 22.16552 | 114.67887 | 10131 ft | 287 kts | 224° |
| 2026-05-05 13:38 | 22.15129 | 114.66429 | 9991 ft | 281 kts | 224° |
| 2026-05-05 13:38 | 22.13707 | 114.64970 | 9859 ft | 283 kts | 224° |
| 2026-05-05 13:38 | 22.12284 | 114.63511 | 9696 ft | 281 kts | 224° |
| 2026-05-05 13:39 | 22.10870 | 114.62061 | 9577 ft | 279 kts | 224° |
| 2026-05-05 13:39 | 22.09466 | 114.60622 | 9439 ft | 279 kts | 225° |
| 2026-05-05 13:39 | 22.08062 | 114.59184 | 9330 ft | 277 kts | 225° |
| 2026-05-05 13:39 | 22.06676 | 114.57765 | 9225 ft | 274 kts | 225° |
| 2026-05-05 13:40 | 22.05291 | 114.56347 | 8980 ft | 275 kts | 225° |
| 2026-05-05 13:40 | 22.03911 | 114.54933 | 8741 ft | 272 kts | 225° |
| 2026-05-05 13:40 | 22.02590 | 114.53463 | 8479 ft | 275 kts | 232° |
| 2026-05-05 13:40 | 22.01644 | 114.51688 | 8234 ft | 272 kts | 246° |
| 2026-05-05 13:41 | 22.00913 | 114.49803 | 8007 ft | 273 kts | 248° |
| 2026-05-05 13:41 | 22.00200 | 114.47897 | 7775 ft | 275 kts | 248° |
| 2026-05-05 13:41 | 21.99483 | 114.45991 | 7532 ft | 273 kts | 247° |
| 2026-05-05 13:41 | 21.98769 | 114.44109 | 7284 ft | 270 kts | 247° |
| 2026-05-05 13:42 | 21.98055 | 114.42234 | 7064 ft | 271 kts | 247° |
| 2026-05-05 13:42 | 21.97345 | 114.40373 | 6821 ft | 267 kts | 247° |
| 2026-05-05 13:42 | 21.96640 | 114.38530 | 6579 ft | 266 kts | 246° |
| 2026-05-05 13:42 | 21.95941 | 114.36706 | 6354 ft | 268 kts | 247° |
| 2026-05-05 13:43 | 21.95220 | 114.34823 | 6109 ft | 268 kts | 246° |
| 2026-05-05 13:43 | 21.94509 | 114.32970 | 5947 ft | 269 kts | 246° |
| 2026-05-05 13:43 | 21.93801 | 114.31127 | 6004 ft | 270 kts | 246° |
| 2026-05-05 13:43 | 21.93084 | 114.29258 | 6015 ft | 270 kts | 246° |
| 2026-05-05 13:44 | 21.92370 | 114.27397 | 6013 ft | 268 kts | 246° |
| 2026-05-05 13:44 | 21.91655 | 114.25536 | 6012 ft | 268 kts | 246° |
| 2026-05-05 13:44 | 21.90944 | 114.23683 | 6012 ft | 267 kts | 246° |
| 2026-05-05 13:44 | 21.90237 | 114.21841 | 6011 ft | 265 kts | 246° |
| 2026-05-05 13:45 | 21.89719 | 114.19932 | 6011 ft | 269 kts | 262° |
| 2026-05-05 13:45 | 21.89928 | 114.17937 | 6015 ft | 273 kts | 288° |
| 2026-05-05 13:45 | 21.90768 | 114.16068 | 6012 ft | 275 kts | 297° |
| 2026-05-05 13:45 | 21.91706 | 114.14303 | 6011 ft | 276 kts | 298° |
| 2026-05-05 13:46 | 21.92663 | 114.12511 | 6012 ft | 276 kts | 298° |
| 2026-05-05 13:46 | 21.93610 | 114.10717 | 5951 ft | 275 kts | 297° |
| 2026-05-05 13:46 | 21.94551 | 114.08919 | 5869 ft | 275 kts | 297° |
| 2026-05-05 13:46 | 21.95489 | 114.07116 | 5760 ft | 275 kts | 296° |
| 2026-05-05 13:47 | 21.96434 | 114.05292 | 5607 ft | 275 kts | 297° |
| 2026-05-05 13:47 | 21.97354 | 114.03510 | 5493 ft | 276 kts | 297° |
| 2026-05-05 13:47 | 21.98301 | 114.01679 | 5347 ft | 276 kts | 296° |
| 2026-05-05 13:47 | 21.99224 | 113.99891 | 5212 ft | 267 kts | 297° |
| 2026-05-05 13:48 | 22.00108 | 113.98184 | 5102 ft | 255 kts | 296° |
| 2026-05-05 13:48 | 22.00955 | 113.96542 | 4953 ft | 254 kts | 296° |
| 2026-05-05 13:48 | 22.01810 | 113.94881 | 4843 ft | 254 kts | 296° |
| 2026-05-05 13:48 | 22.02663 | 113.93223 | 4716 ft | 253 kts | 297° |
| 2026-05-05 13:49 | 22.03516 | 113.91564 | 4583 ft | 253 kts | 297° |
| 2026-05-05 13:49 | 22.04370 | 113.89904 | 4479 ft | 253 kts | 296° |
| 2026-05-05 13:49 | 22.05229 | 113.88238 | 4349 ft | 255 kts | 296° |
| 2026-05-05 13:49 | 22.06087 | 113.86570 | 4227 ft | 254 kts | 297° |
| 2026-05-05 13:50 | 22.06934 | 113.84927 | 4103 ft | 246 kts | 296° |
| 2026-05-05 13:50 | 22.07757 | 113.83326 | 3987 ft | 243 kts | 297° |
| 2026-05-05 13:50 | 22.08575 | 113.81737 | 3866 ft | 242 kts | 297° |
| 2026-05-05 13:50 | 22.09392 | 113.80146 | 3744 ft | 242 kts | 297° |
| 2026-05-05 13:51 | 22.10233 | 113.78570 | 3626 ft | 244 kts | 302° |
| 2026-05-05 13:51 | 22.11416 | 113.77268 | 3488 ft | 246 kts | 326° |
| 2026-05-05 13:51 | 22.12923 | 113.76398 | 3385 ft | 246 kts | 335° |
| 2026-05-05 13:51 | 22.14477 | 113.75638 | 3257 ft | 244 kts | 336° |
| 2026-05-05 13:52 | 22.16019 | 113.74889 | 3128 ft | 243 kts | 336° |
| 2026-05-05 13:52 | 22.17546 | 113.74141 | 3008 ft | 243 kts | 336° |
| 2026-05-05 13:52 | 22.19086 | 113.73379 | 2879 ft | 243 kts | 336° |
| 2026-05-05 13:52 | 22.20614 | 113.72706 | 2761 ft | 230 kts | 348° |
| 2026-05-05 13:53 | 22.22091 | 113.72831 | 2722 ft | 206 kts | 27° |
| 2026-05-05 13:53 | 22.23330 | 113.73586 | 2685 ft | 205 kts | 36° |
| 2026-05-05 13:53 | 22.24521 | 113.74443 | 2634 ft | 206 kts | 37° |
| 2026-05-05 13:53 | 22.25689 | 113.75291 | 2577 ft | 202 kts | 37° |
| 2026-05-05 13:54 | 22.26644 | 113.76344 | 2367 ft | 188 kts | 59° |
| 2026-05-05 13:54 | 22.27155 | 113.77530 | 2304 ft | 166 kts | 75° |
| 2026-05-05 13:54 | 22.27502 | 113.78650 | 2157 ft | 151 kts | 74° |
| 2026-05-05 13:54 | 22.27837 | 113.79682 | 1952 ft | 140 kts | 73° |
| 2026-05-05 13:55 | 22.28149 | 113.80645 | 1778 ft | 133 kts | 73° |
| 2026-05-05 13:55 | 22.28453 | 113.81590 | 1595 ft | 133 kts | 73° |
| 2026-05-05 13:55 | 22.28758 | 113.82536 | 1405 ft | 133 kts | 74° |
| 2026-05-05 13:55 | 22.29061 | 113.83482 | 1239 ft | 134 kts | 73° |
| 2026-05-05 13:56 | 22.29368 | 113.84437 | 1053 ft | 135 kts | 72° |
| 2026-05-05 13:56 | 22.29677 | 113.85399 | 892 ft | 136 kts | 72° |
| 2026-05-05 13:56 | 22.29987 | 113.86361 | 714 ft | 135 kts | 72° |
| 2026-05-05 13:56 | 22.30295 | 113.87324 | 545 ft | 136 kts | 73° |
| 2026-05-05 13:57 | 22.30610 | 113.88285 | 377 ft | 135 kts | 71° |
| 2026-05-05 13:57 | 22.30924 | 113.89258 | 219 ft | 139 kts | 73° |
| 2026-05-05 13:57 | 22.31231 | 113.90216 | 41 ft | 135 kts | 73° |
| 2026-05-05 13:57 | 22.31496 | 113.91058 | 38 ft | 85 kts | 70° |
| 2026-05-05 13:58 | 22.31599 | 113.91377 | 38 ft | 25 kts | 71° |
| 2026-05-05 13:58 | 22.31656 | 113.91553 | 38 ft | 24 kts | 72° |
| 2026-05-05 13:58 | 22.31701 | 113.91707 | 39 ft | 21 kts | 70° |
| 2026-05-05 13:58 | 22.31755 | 113.91863 | 39 ft | 23 kts | 72° |
| 2026-05-05 13:59 | 22.31770 | 113.92240 | 39 ft | 26 kts | 99° |
| 2026-05-05 13:59 | 22.31731 | 113.92395 | 38 ft | 19 kts | 127° |
| 2026-05-05 14:00 | 22.31555 | 113.92420 | 38 ft | 5 kts | 205° |
| 2026-05-05 14:00 | 22.31542 | 113.92413 | 38 ft | 0 kts | 205° |
| 2026-05-05 14:01 | 22.31542 | 113.92414 | 38 ft | 0 kts | 205° |